Home > Products > Valid Products > TAF

000
FTUS44 KAMA 271700
TAFGUY
TAF
KGUY 271720Z 2718/2818 17014KT P6SM SCT070 SCT250
     FM272100 16010KT P6SM VCTS BKN080CB
     FM280800 19015KT P6SM VCSH SCT009 BKN015=



000
FTUS44 KAMA 271700
TAFDHT
TAF
KDHT 271720Z 2718/2818 23016KT P6SM SCT070 SCT250
     FM280100 17010KT P6SM BKN080
     FM280900 18015KT P6SM VCSH SCT009 BKN015=



000
FTUS44 KAMA 271700
TAFAMA
TAF
KAMA 271720Z 2718/2818 20015KT P6SM SCT070 SCT250
     FM272000 16013KT P6SM VCTS SCT080CB
     FM281000 18015KT 6SM SHRA VCTS SCT004 BKN010CB=



000
FTUS44 KAMA 271300 AAA
TAFAMA
TAF AMD
KAMA 271344Z 2714/2812 18008KT P6SM SCT120
     FM271800 18015KT P6SM SCT070 SCT250
     FM280100 16013KT P6SM SCT100=



000
FTUS44 KAMA 271100
TAFGUY
TAF
KGUY 271120Z 2712/2812 16008KT P6SM SCT120
     FM271800 18014KT P6SM SCT070 SCT250
     FM280100 16010KT P6SM BKN100=



000
FTUS44 KAMA 271100
TAFGUY
TAF
KGUY 271120Z 2712/2812 16008KT P6SM SCT120
     FM271800 18014KT P6SM SCT070 SCT250
     FM280100 16010KT P6SM BKN100=



000
FTUS44 KAMA 271100
TAFDHT
TAF
KDHT 271120Z 2712/2812 05008KT P6SM SCT120
     FM271700 19016KT P6SM SCT070 SCT250
     FM280100 17010KT P6SM BKN100=



000
FTUS44 KAMA 271100
TAFAMA
TAF
KAMA 271120Z 2712/2812 18008KT P6SM SCT120
      TEMPO 2713/2717 P6SM OVC007
     FM271800 18015KT P6SM SCT070 SCT250
     FM280100 16013KT P6SM SCT100=



000
FTUS44 KAMA 271100
TAFAMA
TAF
KAMA 271120Z 2712/2812 18008KT P6SM SCT120
      TEMPO 2713/2717 P6SM OVC007
     FM271800 18015KT P6SM SCT070 SCT250
     FM280100 16013KT P6SM SCT100=



000
FTUS44 KAMA 271100
TAFDHT
TAF
KDHT 271120Z 2712/2812 05008KT P6SM SCT120
     FM271700 19016KT P6SM SCT070 SCT250
     FM280100 17010KT P6SM BKN100=



000
FTUS44 KAMA 270700 AAA
TAFGUY
TAF AMD
KGUY 270740Z 2708/2806 11006KT P6SM VCTS OVC100CB
      TEMPO 2709/2713 VRB20G30KT 5SM TSRA BR OVC030CB
     FM271400 18012G20KT P6SM SCT060 SCT300
     FM272300 16011KT P6SM SCT030 BKN100 OVC300=



000
FTUS44 KAMA 270700 AAA
TAFGUY
TAF AMD
KGUY 270740Z 2708/2806 11006KT P6SM VCTS OVC100CB
      TEMPO 2709/2713 VRB20G30KT 5SM TSRA BR OVC030CB
     FM271400 18012G20KT P6SM SCT060 SCT300
     FM272300 16011KT P6SM SCT030 BKN100 OVC300=



000
FTUS44 KAMA 270500
TAFAMA
TAF
KAMA 270520Z 2706/2806 11009KT P6SM SCT300
     FM271100 17009KT P6SM SCT300
     FM271500 20015G22KT P6SM SCT050 SCT300
     FM272300 15016G25KT P6SM SCT030 BKN100 OVC300=



000
FTUS44 KAMA 270500
TAFGUY
TAF
KGUY 270520Z 2706/2806 14006KT P6SM OVC300
     FM271000 16006KT 5SM BR BKN012
     FM271500 18012G20KT P6SM SCT060 SCT300
     FM272300 16011KT P6SM SCT030 BKN100 OVC300=



000
FTUS44 KAMA 270500
TAFDHT
TAF
KDHT 270520Z 2706/2806 13007KT P6SM BKN300
     FM271000 VRB06KT P6SM SCT300
     FM271500 21014G22KT P6SM SCT070 SCT300
     FM272300 18014G21KT P6SM SCT040 BKN120 OVC300=



000
FTUS44 KAMA 262300 RRA
TAFGUY
TAF
KGUY 262344Z 2700/2724 11006KT P6SM SCT050 BKN300
     FM270900 16005KT 5SM BR BKN012
     FM271400 18013G20KT P6SM SCT060 SCT300=



000
FTUS44 KAMA 262300 RRA
TAFDHT
TAF
KDHT 262344Z 2700/2724 11008KT P6SM SCT070 BKN300
     FM271000 VRB06KT P6SM SCT300
     FM271400 21014G22KT P6SM SCT070 SCT300=



000
FTUS44 KAMA 262300 RRA
TAFAMA
TAF
KAMA 262344Z 2700/2724 04007KT P6SM SCT050 SCT300
     FM270300 11009KT P6SM SCT300
     FM271100 16009KT P6SM SCT300
     FM271400 19015G22KT P6SM SCT050 SCT300=



000
FTUS44 KAMA 262300 RRA
TAFAMA
TAF
KAMA 262344Z 2700/2724 04007KT P6SM SCT050 SCT300
     FM270300 11009KT P6SM SCT300
     FM271100 16009KT P6SM SCT300
     FM271400 19015G22KT P6SM SCT050 SCT300=



000
FTUS44 KAMA 262300 RRA
TAFGUY
TAF
KGUY 262344Z 2700/2724 11006KT P6SM SCT050 BKN300
     FM270900 16005KT 5SM BR BKN012
     FM271400 18013G20KT P6SM SCT060 SCT300=



000
FTUS44 KAMA 262300 RRA
TAFDHT
TAF
KDHT 262344Z 2700/2724 11008KT P6SM SCT070 BKN300
     FM271000 VRB06KT P6SM SCT300
     FM271400 21014G22KT P6SM SCT070 SCT300=



000
FTUS44 KAMA 261700 RRA
TAFDHT
TAF
KDHT 261746Z 2618/2718 03014KT P6SM FEW070
     FM262300 09007KT P6SM SCT080
     FM271400 21012G20KT P6SM SCT250=



000
FTUS44 KAMA 261700 RRA
TAFDHT
TAF
KDHT 261746Z 2618/2718 03014KT P6SM FEW070
     FM262300 09007KT P6SM SCT080
     FM271400 21012G20KT P6SM SCT250=



000
FTUS44 KAMA 261700 RRA
TAFGUY
TAF
KGUY 261746Z 2618/2718 03008KT P6SM SKC
     FM270100 12008KT P6SM SCT070
     FM270900 12004KT 4SM BR BKN015
     FM271400 20011KT P6SM FEW020=



000
FTUS44 KAMA 261700 RRA
TAFAMA
TAF
KAMA 261746Z 2618/2718 33006KT P6SM SKC
     FM262300 09010KT P6SM SCT070
     FM271000 15010KT P6SM SCT250=



000
FTUS44 KAMA 261700 RRA
TAFAMA
TAF
KAMA 261746Z 2618/2718 33006KT P6SM SKC
     FM262300 09010KT P6SM SCT070
     FM271000 15010KT P6SM SCT250=



000
FTUS44 KAMA 261700 RRA
TAFGUY
TAF
KGUY 261746Z 2618/2718 03008KT P6SM SKC
     FM270100 12008KT P6SM SCT070
     FM270900 12004KT 4SM BR BKN015
     FM271400 20011KT P6SM FEW020=



000
FTUS44 KAMA 261100
TAFGUY
TAF
KGUY 261120Z 2612/2712 03008KT P6SM SCT250
     FM270100 12008KT P6SM SCT250=



000
FTUS44 KAMA 261100
TAFAMA
TAF
KAMA 261120Z 2612/2712 10008KT P6SM SCT250
     FM261900 02008KT P6SM SCT250
     FM270000 09008KT P6SM SCT250=



000
FTUS44 KAMA 261100
TAFDHT
TAF
KDHT 261120Z 2612/2712 03008KT P6SM SCT250
     FM262100 10008KT P6SM SCT250
     FM270600 VRB03KT P6SM SCT250=



000
FTUS44 KAMA 260500
TAFAMA
TAF
KAMA 260520Z 2606/2706 15010KT P6SM SCT010 BKN300
     FM261400 01009KT P6SM SCT030
     FM261900 25009KT P6SM SCT060 SCT300
     FM270100 14008KT P6SM SCT040 SCT300=



000
FTUS44 KAMA 260500
TAFDHT
TAF
KDHT 260520Z 2606/2706 09008KT P6SM SCT010 SCT300
     FM260800 01008KT P6SM SCT010 SCT300
     FM261400 03011KT P6SM SCT030
     FM262000 09008KT P6SM SCT060 SCT300
     FM270200 05009KT P6SM SCT040 BKN300=



000
FTUS44 KAMA 260500
TAFGUY
TAF
KGUY 260520Z 2606/2706 20007KT P6SM SCT010 SCT300
     FM260900 36007KT P6SM SCT010 SCT300
     FM261600 05008KT P6SM SCT040
     FM262100 10008KT P6SM SCT030 BKN300=



000
FTUS44 KAMA 252300
TAFGUY
TAF
KGUY 252329Z 2600/2624 15009KT P6SM SCT050 BKN300
     FM260800 01009KT P6SM BKN010
     FM261600 05009KT P6SM SCT040 SCT300=



000
FTUS44 KAMA 252300
TAFAMA
TAF
KAMA 252329Z 2600/2624 15011KT P6SM SCT300
     FM260600 17009KT P6SM OVC010
     FM261400 02009KT P6SM SCT040
     FM262000 20010KT P6SM SCT060 SCT300=



000
FTUS44 KAMA 252300
TAFDHT
TAF
KDHT 252329Z 2600/2624 15011KT P6SM SCT070 BKN300
     FM260200 05010KT P6SM SCT100 BKN300
     FM260800 01010KT P6SM SCT010
     FM261800 07008KT P6SM SCT050 SCT300=



000
FTUS44 KAMA 252300
TAFAMA
TAF
KAMA 252329Z 2600/2624 15011KT P6SM SCT300
     FM260600 17009KT P6SM OVC010
     FM261400 02009KT P6SM SCT040
     FM262000 20010KT P6SM SCT060 SCT300=



000
FTUS44 KAMA 252300
TAFGUY
TAF
KGUY 252329Z 2600/2624 15009KT P6SM SCT050 BKN300
     FM260800 01009KT P6SM BKN010
     FM261600 05009KT P6SM SCT040 SCT300=



000
FTUS44 KAMA 252300
TAFDHT
TAF
KDHT 252329Z 2600/2624 15011KT P6SM SCT070 BKN300
     FM260200 05010KT P6SM SCT100 BKN300
     FM260800 01010KT P6SM SCT010
     FM261800 07008KT P6SM SCT050 SCT300=



000
FTUS44 KAMA 251700
TAFDHT
TAF
KDHT 251720Z 2518/2618 18010KT P6SM SCT070 BKN200
     FM252000 18016G26KT P6SM SCT070 BKN200
     FM260100 15013KT P6SM BKN080
     FM260900 35012KT P6SM SCT010=



000
FTUS44 KAMA 251700
TAFAMA
TAF
KAMA 251720Z 2518/2618 19016G26KT P6SM SCT100 OVC200
     FM260600 16016KT P6SM OVC010
     FM261300 32010KT P6SM SCT010=



000
FTUS44 KAMA 251700
TAFGUY
TAF
KGUY 251720Z 2518/2618 30008KT P6SM SCT200
     FM251900 18014KT P6SM SCT060 BKN200
     FM260200 11010KT P6SM BKN060
     FM261000 01008KT P6SM BKN015
     FM261600 07006KT P6SM SCT020=



000
FTUS44 KAMA 251100
TAFAMA
TAF
KAMA 251124Z 2512/2612 23011KT P6SM FEW100 SCT200
     FM251400 21013KT P6SM SCT200
     FM252000 17016G26KT P6SM SCT060 SCT200
     FM260600 16016KT P6SM OVC010
     FM261100 20010KT P6SM SCT010=



000
FTUS44 KAMA 251100
TAFGUY
TAF
KGUY 251124Z 2512/2612 27005KT P6SM SCT100 BKN200
     FM251400 30009KT P6SM SCT200
     FM251900 18014KT P6SM SCT060 BKN200
     FM260200 11010KT P6SM BKN060
     FM261000 01008KT P6SM BKN015=



000
FTUS44 KAMA 251100
TAFDHT
TAF
KDHT 251124Z 2512/2612 30008KT P6SM SCT200
     FM251600 18012KT P6SM SCT070 SCT200
     FM252000 18016G26KT P6SM SCT070 BKN200
     FM260100 15013KT P6SM BKN080=



000
FTUS44 KAMA 250500
TAFAMA
TAF
KAMA 250525Z 2506/2606 18011KT P6SM FEW100 SCT200
     FM251400 21013KT P6SM SCT200
     FM252000 17016G23KT P6SM SCT060 SCT200
     FM260400 16016KT P6SM OVC010=



000
FTUS44 KAMA 250500
TAFGUY
TAF
KGUY 250525Z 2506/2606 16011KT P6SM SCT040 BKN200
     FM250800 23008KT P6SM SCT100 BKN200
     FM251400 34009KT P6SM SCT200
     FM251900 18014KT P6SM SCT060 BKN200
     FM260200 11010KT P6SM BKN060=



000
FTUS44 KAMA 250500
TAFDHT
TAF
KDHT 250525Z 2506/2606 24008KT P6SM FEW100 SCT200
     FM251200 29008KT P6SM SCT200
     FM251600 18012KT P6SM SCT070 SCT200
     FM252000 18016G26KT P6SM SCT070 BKN200
     FM260100 15013KT P6SM BKN080=



000
FTUS44 KAMA 242300
TAFDHT
TAF
KDHT 242322Z 2500/2524 19011KT P6SM FEW070 SCT300
     FM250600 25008KT P6SM SCT300
     FM251200 31008KT P6SM SKC
     FM251700 20012KT P6SM SCT070 SCT300=



000
FTUS44 KAMA 242300
TAFAMA
TAF
KAMA 242322Z 2500/2524 18011KT P6SM FEW060 SCT300
     FM251400 21013KT P6SM SCT300
     FM252000 17016G23KT P6SM SCT060 SCT300=



000
FTUS44 KAMA 242300
TAFGUY
TAF
KGUY 242322Z 2500/2524 16011KT P6SM SCT040 BKN300
     FM250900 23008KT P6SM SCT100 BKN300
     FM251200 30009KT P6SM FEW300
     FM251900 20011KT P6SM SCT060 SCT300=



000
FTUS44 KAMA 242300
TAFGUY
TAF
KGUY 242322Z 2500/2524 16011KT P6SM SCT040 BKN300
     FM250900 23008KT P6SM SCT100 BKN300
     FM251200 30009KT P6SM FEW300
     FM251900 20011KT P6SM SCT060 SCT300=



000
FTUS44 KAMA 242300
TAFDHT
TAF
KDHT 242322Z 2500/2524 19011KT P6SM FEW070 SCT300
     FM250600 25008KT P6SM SCT300
     FM251200 31008KT P6SM SKC
     FM251700 20012KT P6SM SCT070 SCT300=



000
FTUS44 KAMA 242300
TAFAMA
TAF
KAMA 242322Z 2500/2524 18011KT P6SM FEW060 SCT300
     FM251400 21013KT P6SM SCT300
     FM252000 17016G23KT P6SM SCT060 SCT300=



    US Dept of Commerce
    National Oceanic and Atmospheric Administration
    National Weather Service
    1325 East West Highway
    Silver Spring, MD 20910
    Page Author: NWS Internet Services Team
Disclaimer
Information Quality
Credits
Glossary
Privacy Policy
Freedom of Information Act (FOIA)
About Us
Career Opportunities